Time;durP1;ratioP1;P1;durP2;ratioP2;P2;SDS_P1;SDS_P2;PMS_P1;PMS_P2;Temp;Humidity;BMP_temperature;BMP_pressure;BME280_temperature;BME280_humidity;BME280_pressure;Samples;Min_cycle;Max_cycle;Signal;HPM_P1;HPM_P2
2023/10/08 00:00:42;;;;;;;1.60;1.50;;;17.50;99.90;;;17.87;nan;101399.19;4914048;29;20677;-67
2023/10/08 00:02:46;;;;;;;4.07;2.07;;;17.50;99.90;;;17.83;nan;101388.09;4914665;29;21189;-66
2023/10/08 00:05:16;;;;;;;2.33;2.13;;;17.40;99.90;;;17.84;nan;101394.22;4914262;29;20634;-66
2023/10/08 00:07:44;;;;;;;3.20;2.20;;;17.50;99.90;;;17.82;nan;101390.88;4914940;29;21085;-66
2023/10/08 00:10:13;;;;;;;2.27;2.07;;;17.50;99.90;;;17.82;nan;101399.63;4914820;29;20633;-67
2023/10/08 00:12:40;;;;;;;4.07;2.80;;;17.40;99.90;;;17.81;nan;101400.59;4912280;29;20642;-67
2023/10/08 00:15:10;;;;;;;2.27;1.50;;;17.40;99.90;;;17.80;nan;101396.28;4913988;29;20644;-66
2023/10/08 00:17:37;;;;;;;1.87;1.77;;;17.40;99.90;;;17.78;nan;101395.59;4913327;29;20666;-67
2023/10/08 00:20:05;;;;;;;2.60;1.80;;;17.40;99.90;;;17.77;nan;101404.50;4911061;29;20686;-66
2023/10/08 00:22:35;;;;;;;2.27;2.00;;;17.40;99.90;;;17.75;nan;101405.59;4913374;29;20638;-66
2023/10/08 00:25:11;;;;;;;2.00;1.80;;;17.40;99.90;;;17.74;nan;101414.47;4913164;29;20755;-67
2023/10/08 00:27:38;;;;;;;2.20;2.10;;;17.30;99.90;;;17.76;nan;101412.53;4914211;29;21049;-67
2023/10/08 00:30:17;;;;;;;2.93;1.70;;;17.40;99.90;;;17.76;nan;101410.72;4901835;29;20651;-67
2023/10/08 00:32:44;;;;;;;3.43;1.73;;;17.40;99.90;;;17.76;nan;101413.38;4905804;29;20701;-67
2023/10/08 00:35:13;;;;;;;3.00;1.90;;;17.40;99.90;;;17.76;nan;101416.00;4909232;29;20642;-67
2023/10/08 00:37:41;;;;;;;1.73;1.70;;;17.40;99.90;;;17.78;nan;101410.63;4913270;29;20664;-65
2023/10/08 00:40:14;;;;;;;2.83;1.93;;;17.40;99.90;;;17.77;nan;101409.78;4910467;29;20717;-65
2023/10/08 00:42:45;;;;;;;3.67;1.90;;;17.40;99.90;;;17.77;nan;101414.22;4906660;29;20700;-66
2023/10/08 00:45:16;;;;;;;2.70;2.20;;;17.40;99.90;;;17.74;nan;101414.47;4907648;29;20648;-66
2023/10/08 00:47:43;;;;;;;3.27;2.33;;;17.40;99.90;;;17.71;nan;101409.50;4911859;29;21043;-66
2023/10/08 00:50:20;;;;;;;1.80;1.70;;;17.30;99.90;;;17.71;nan;101409.50;4907602;29;20649;-66
2023/10/08 00:53:10;;;;;;;2.67;2.27;;;17.30;99.90;;;17.68;nan;101409.75;4911491;29;20642;-67
2023/10/08 00:55:37;;;;;;;8.80;2.40;;;17.30;99.90;;;17.65;nan;101415.31;4915245;29;20641;-65
2023/10/08 00:58:11;;;;;;;2.20;2.00;;;17.30;99.90;;;17.63;nan;101419.91;4909744;29;20680;-66
2023/10/08 01:00:40;;;;;;;4.03;2.17;;;17.20;99.90;;;17.61;nan;101421.84;4907783;29;20669;-66
2023/10/08 01:03:14;;;;;;;1.80;1.63;;;17.20;99.90;;;17.59;nan;101423.78;4911902;29;20641;-67
2023/10/08 01:05:46;;;;;;;2.60;2.33;;;17.20;99.90;;;17.52;nan;101415.56;4904210;29;20711;-66
2023/10/08 01:08:22;;;;;;;2.10;1.90;;;17.20;99.90;;;17.49;nan;101429.00;4905479;29;20692;-66
2023/10/08 01:10:58;;;;;;;2.43;2.10;;;17.10;99.90;;;17.47;nan;101422.19;4911100;29;21227;-67
2023/10/08 01:13:26;;;;;;;1.77;1.67;;;17.10;99.90;;;17.44;nan;101414.56;4904526;29;20649;-67
2023/10/08 01:15:55;;;;;;;4.07;2.23;;;17.10;99.90;;;17.44;nan;101409.28;4908836;29;20641;-67
2023/10/08 01:18:31;;;;;;;3.73;2.27;;;17.10;99.90;;;17.45;nan;101405.66;4910862;29;20673;-66
2023/10/08 01:21:05;;;;;;;2.83;1.63;;;17.10;99.90;;;17.44;nan;101407.44;4912326;29;20673;-67
2023/10/08 01:23:32;;;;;;;2.00;1.80;;;17.10;99.90;;;17.44;nan;101404.00;4910275;29;20641;-67
2023/10/08 01:26:22;;;;;;;5.10;2.13;;;17.10;99.90;;;17.41;nan;101404.25;4912725;29;20641;-67
2023/10/08 01:28:48;;;;;;;2.70;1.83;;;17.10;99.90;;;17.35;nan;101405.66;4911048;29;20859;-67
2023/10/08 01:31:15;;;;;;;2.57;1.93;;;17.00;99.90;;;17.33;nan;101406.75;4904386;29;20638;-67
2023/10/08 01:33:50;;;;;;;1.63;1.57;;;17.00;99.90;;;17.32;nan;101407.69;4911888;29;20638;-67
2023/10/08 01:36:17;;;;;;;1.80;1.70;;;17.00;99.90;;;17.26;nan;101406.44;4912446;29;20650;-67
2023/10/08 01:38:49;;;;;;;9.30;1.70;;;16.90;99.90;;;17.22;nan;101410.31;4913594;29;21331;-66
2023/10/08 01:41:30;;;;;;;2.20;2.07;;;16.90;99.90;;;17.20;nan;101411.41;4913589;29;20673;-66
2023/10/08 01:44:00;;;;;;;3.23;1.77;;;16.80;99.90;;;17.21;nan;101410.44;4906869;29;20645;-66
2023/10/08 01:46:27;;;;;;;2.17;1.73;;;16.80;99.90;;;17.18;nan;101414.19;4910362;29;20645;-66
2023/10/08 01:49:00;;;;;;;4.00;1.37;;;16.80;99.90;;;17.16;nan;101402.94;4897659;29;20649;-66
2023/10/08 01:51:37;;;;;;;1.43;1.33;;;16.80;99.90;;;17.14;nan;101404.88;4910571;29;20744;-66
2023/10/08 01:54:10;;;;;;;1.60;1.47;;;16.80;99.90;;;17.09;nan;101404.44;4912071;29;20640;-66
2023/10/08 01:56:41;;;;;;;1.70;1.60;;;16.80;99.90;;;17.03;nan;101400.56;4909202;29;20664;-66
2023/10/08 01:59:11;;;;;;;1.50;1.40;;;16.70;99.90;;;16.97;nan;101400.25;4925661;29;20622;-66
2023/10/08 02:01:38;;;;;;;1.50;1.40;;;16.60;99.90;;;16.94;nan;101411.03;4912926;29;20637;-66
2023/10/08 02:04:11;;;;;;;6.00;2.50;;;16.60;99.90;;;16.89;nan;101400.03;4916477;29;20638;-67
2023/10/08 02:06:42;;;;;;;1.77;1.67;;;16.60;99.90;;;16.87;nan;101397.56;4916195;29;20637;-66
2023/10/08 02:09:09;;;;;;;4.20;2.13;;;16.50;99.90;;;16.82;nan;101399.75;4911372;29;20641;-67
2023/10/08 02:11:53;;;;;;;2.43;1.77;;;16.50;99.90;;;16.77;nan;101401.13;4905445;29;20637;-67
2023/10/08 02:14:22;;;;;;;3.60;2.07;;;16.40;99.90;;;16.72;nan;101396.22;4902827;29;20634;-66
2023/10/08 02:16:55;;;;;;;1.97;1.83;;;16.40;99.90;;;16.72;nan;101393.59;4907196;29;20649;-67
2023/10/08 02:19:26;;;;;;;2.60;1.60;;;16.40;99.90;;;16.65;nan;101389.81;4912968;29;20657;-66
2023/10/08 02:21:57;;;;;;;1.40;1.30;;;16.40;99.90;;;16.65;nan;101392.44;4915171;29;20640;-66
2023/10/08 02:24:25;;;;;;;2.13;1.50;;;16.30;99.90;;;16.63;nan;101381.19;4911751;29;20637;-67
2023/10/08 02:26:54;;;;;;;1.50;1.40;;;16.30;99.90;;;16.63;nan;101388.28;4915483;29;20630;-66
2023/10/08 02:29:28;;;;;;;2.33;1.40;;;16.30;99.90;;;16.59;nan;101385.06;4915865;29;20640;-66
2023/10/08 02:31:56;;;;;;;3.97;1.63;;;16.30;99.90;;;16.58;nan;101388.69;4914092;29;20641;-66
2023/10/08 02:34:23;;;;;;;1.37;1.27;;;16.30;99.90;;;16.60;nan;101393.81;4913707;29;20994;-66
2023/10/08 02:36:50;;;;;;;1.27;1.27;;;16.30;99.90;;;16.59;nan;101386.88;4924389;29;20642;-66
2023/10/08 02:39:23;;;;;;;1.13;0.97;;;16.30;99.90;;;16.53;nan;101382.94;4912673;29;20637;-67
2023/10/08 02:41:50;;;;;;;1.73;1.50;;;16.20;99.90;;;16.48;nan;101397.47;4911777;29;21019;-67
2023/10/08 02:44:17;;;;;;;1.53;1.43;;;16.20;99.90;;;16.44;nan;101393.41;4914530;29;20634;-67
2023/10/08 02:46:48;;;;;;;1.60;1.50;;;16.10;99.90;;;16.42;nan;101401.44;4911771;29;20638;-67
2023/10/08 02:49:20;;;;;;;3.53;1.67;;;16.10;99.90;;;16.40;nan;101405.19;4913163;29;20660;-67
2023/10/08 02:51:53;;;;;;;1.83;1.23;;;16.10;99.90;;;16.38;nan;101407.91;4914471;29;20696;-67
2023/10/08 02:54:31;;;;;;;2.67;1.50;;;16.10;99.90;;;16.39;nan;101406.97;4929156;29;20636;-67
2023/10/08 02:57:03;;;;;;;3.23;1.50;;;16.10;99.90;;;16.38;nan;101399.19;4914029;29;21238;-67
2023/10/08 02:59:45;;;;;;;1.90;1.77;;;16.10;99.90;;;16.38;nan;101400.03;4915298;29;21110;-67
2023/10/08 03:02:23;;;;;;;1.20;1.20;;;16.10;99.90;;;16.39;nan;101395.59;4912573;29;20701;-67
2023/10/08 03:04:52;;;;;;;0.93;0.90;;;16.10;99.90;;;16.37;nan;101398.38;4920385;29;21041;-66
2023/10/08 03:07:32;;;;;;;1.17;0.80;;;16.10;99.90;;;16.38;nan;101402.66;4910403;29;20666;-66
2023/10/08 03:10:06;;;;;;;1.17;1.03;;;16.10;99.90;;;16.39;nan;101398.22;4914739;29;20638;-66
2023/10/08 03:12:33;;;;;;;1.17;1.07;;;16.10;99.90;;;16.39;nan;101400.88;4912120;29;21080;-66
2023/10/08 03:15:12;;;;;;;2.23;1.70;;;16.10;99.90;;;16.38;nan;101397.38;4912856;29;20669;-66
2023/10/08 03:17:50;;;;;;;1.40;1.30;;;16.10;99.90;;;16.37;nan;101390.47;4927601;29;21072;-66
2023/10/08 03:20:29;;;;;;;1.43;0.80;;;16.10;99.90;;;16.37;nan;101387.81;4923375;29;20676;-66
2023/10/08 03:22:57;;;;;;;10.03;1.97;;;16.00;99.90;;;16.38;nan;101380.75;4919366;29;20689;-65
2023/10/08 03:25:24;;;;;;;3.50;2.07;;;16.10;99.90;;;16.34;nan;101369.63;4925800;29;20632;-66
2023/10/08 03:27:54;;;;;;;1.50;1.40;;;16.00;99.90;;;16.31;nan;101376.00;4914274;29;21037;-67
2023/10/08 03:30:21;;;;;;;1.30;1.17;;;16.00;99.90;;;16.28;nan;101375.44;4911031;29;20646;-67
2023/10/08 03:32:54;;;;;;;1.33;1.17;;;16.00;99.90;;;16.25;nan;101378.31;4911866;29;20668;-67
2023/10/08 03:35:27;;;;;;;1.40;1.30;;;16.00;99.90;;;16.19;nan;101377.03;4913850;29;21208;-66
2023/10/08 03:38:17;;;;;;;1.40;1.17;;;15.90;99.90;;;16.11;nan;101379.47;4914712;29;20662;-66
2023/10/08 03:40:44;;;;;;;1.50;1.20;;;15.80;99.90;;;16.04;nan;101377.47;4914257;29;20677;-66
2023/10/08 03:43:33;;;;;;;2.70;1.70;;;15.70;99.90;;;15.99;nan;101380.47;4911972;29;21208;-65
2023/10/08 03:46:05;;;;;;;2.33;1.07;;;15.70;99.90;;;15.94;nan;101384.47;4913311;29;20634;-65
2023/10/08 03:48:36;;;;;;;1.50;1.40;;;15.60;99.90;;;15.90;nan;101390.94;4914476;29;20668;-67
2023/10/08 03:51:11;;;;;;;1.80;1.70;;;15.60;99.90;;;15.87;nan;101401.69;4909981;29;20657;-66
2023/10/08 03:53:57;;;;;;;1.00;1.00;;;15.50;99.90;;;15.88;nan;101408.66;4912034;29;21222;-64
2023/10/08 03:56:31;;;;;;;1.20;1.20;;;15.50;99.90;;;15.83;nan;101397.66;4911600;29;20704;-66
2023/10/08 03:59:00;;;;;;;2.13;1.30;;;15.50;99.90;;;15.84;nan;101401.97;4914289;29;20666;-66
2023/10/08 04:01:31;;;;;;;1.60;1.50;;;15.50;99.90;;;15.81;nan;101402.22;4909828;29;20685;-66
2023/10/08 04:04:00;;;;;;;1.10;1.10;;;15.50;99.90;;;15.81;nan;101415.38;4906346;29;20650;-66
2023/10/08 04:06:30;;;;;;;1.70;1.60;;;15.50;99.90;;;15.81;nan;101424.09;4913062;29;21207;-66
2023/10/08 04:11:35;;;;;;;1.83;1.57;;;15.50;99.90;;;15.82;nan;101424.94;4914718;29;20646;-66
2023/10/08 04:14:03;;;;;;;2.03;1.80;;;15.50;99.90;;;15.81;nan;101431.16;4914205;29;21218;-66
2023/10/08 04:16:36;;;;;;;1.17;1.17;;;15.50;99.90;;;15.81;nan;101425.91;4903339;29;20651;-66
2023/10/08 04:19:04;;;;;;;4.00;1.07;;;15.50;99.90;;;15.80;nan;101421.59;4907708;29;21207;-65
2023/10/08 04:21:33;;;;;;;1.03;1.00;;;15.50;99.90;;;15.83;nan;101419.56;4912543;29;20673;-67
2023/10/08 04:24:03;;;;;;;1.33;1.23;;;15.50;99.90;;;15.81;nan;101418.00;4912134;29;20650;-66
2023/10/08 04:26:31;;;;;;;1.87;1.60;;;15.50;99.90;;;15.75;nan;101411.44;4914315;29;20831;-66
2023/10/08 04:29:06;;;;;;;1.80;1.60;;;15.50;99.90;;;15.72;nan;101405.56;4914446;29;20670;-66
2023/10/08 04:31:37;;;;;;;2.40;2.10;;;15.40;99.90;;;15.66;nan;101406.94;4913571;29;20638;-66
2023/10/08 04:34:17;;;;;;;2.00;1.90;;;15.40;99.90;;;15.67;nan;101411.25;4911354;29;20708;-66
2023/10/08 04:36:45;;;;;;;3.07;2.00;;;15.40;99.90;;;15.67;nan;101413.88;4913770;29;20637;-67
2023/10/08 04:39:21;;;;;;;1.67;1.60;;;15.40;99.90;;;15.65;nan;101420.22;4910786;29;20653;-66
2023/10/08 04:41:54;;;;;;;1.90;1.80;;;15.30;99.90;;;15.64;nan;101423.78;4906486;29;20708;-65
2023/10/08 04:44:21;;;;;;;1.77;1.67;;;15.30;99.90;;;15.64;nan;101426.41;4912878;29;20704;-66
2023/10/08 04:46:52;;;;;;;1.50;1.43;;;15.30;99.90;;;15.62;nan;101421.28;4914111;29;20638;-66
2023/10/08 04:49:29;;;;;;;2.13;1.93;;;15.30;99.90;;;15.60;nan;101417.09;4910874;29;20653;-66
2023/10/08 04:52:05;;;;;;;2.53;2.33;;;15.30;99.90;;;15.62;nan;101425.72;4912574;29;20645;-67
2023/10/08 04:54:32;;;;;;;1.60;1.50;;;15.30;99.90;;;15.60;nan;101419.72;4908198;29;20651;-66
2023/10/08 04:57:04;;;;;;;1.30;1.20;;;15.30;99.90;;;15.61;nan;101413.53;4912788;29;20680;-67
2023/10/08 04:59:32;;;;;;;1.43;1.33;;;15.30;99.90;;;15.58;nan;101416.41;4912495;29;20642;-67
2023/10/08 05:23:42;;;;;;;1.53;1.47;;;15.00;99.90;;;15.30;nan;101418.56;4909695;29;21180;-67
2023/10/08 05:34:16;;;;;;;1.50;1.40;;;15.00;99.90;;;15.34;nan;101414.72;4915167;29;20642;-67
2023/10/08 05:37:14;;;;;;;1.97;1.30;;;15.10;99.90;;;15.34;nan;101413.88;4915114;29;21006;-67
2023/10/08 05:42:20;;;;;;;3.87;2.30;;;15.00;99.90;;;15.34;nan;101417.38;4916573;29;20669;-66
2023/10/08 05:45:13;;;;;;;1.97;1.60;;;15.00;99.90;;;15.35;nan;101405.88;4905919;29;20645;-66
2023/10/08 05:52:53;;;;;;;1.50;1.40;;;15.10;99.90;;;15.45;nan;101403.41;4914514;29;20626;-66
2023/10/08 05:55:25;;;;;;;2.17;2.07;;;15.10;99.90;;;15.48;nan;101411.06;4909553;29;20645;-66
2023/10/08 05:58:24;;;;;;;1.63;1.57;;;15.20;99.90;;;15.49;nan;101416.19;4909728;29;20669;-66
2023/10/08 06:01:25;;;;;;;2.07;1.43;;;15.20;99.90;;;15.52;nan;101426.44;4912124;29;20688;-66
2023/10/08 06:04:20;;;;;;;4.27;1.27;;;15.20;99.90;;;15.56;nan;101415.69;4913096;29;21242;-67
2023/10/08 06:07:11;;;;;;;1.90;1.80;;;15.20;99.90;;;15.56;nan;101421.78;4897131;29;20631;-66
2023/10/08 06:09:37;;;;;;;2.50;1.63;;;15.20;99.90;;;15.59;nan;101432.03;4907741;29;20642;-65
2023/10/08 06:12:12;;;;;;;4.53;1.83;;;15.20;99.90;;;15.61;nan;101439.84;4909889;29;20642;-66
2023/10/08 06:17:34;;;;;;;3.53;1.80;;;15.30;99.90;;;15.58;nan;101433.03;4913638;29;20668;-66
2023/10/08 06:20:09;;;;;;;1.77;1.60;;;15.20;99.90;;;15.52;nan;101431.69;4913070;29;21219;-66
2023/10/08 06:22:36;;;;;;;3.03;2.07;;;15.20;99.90;;;15.49;nan;101429.34;4913694;29;20673;-66
2023/10/08 06:25:18;;;;;;;2.17;1.77;;;15.20;99.90;;;15.49;nan;101434.59;4913877;29;20653;-66
2023/10/08 06:27:45;;;;;;;1.40;1.30;;;15.20;99.90;;;15.42;nan;101425.47;4914566;29;20653;-65
2023/10/08 06:30:16;;;;;;;1.83;1.70;;;15.10;99.90;;;15.37;nan;101426.81;4912295;29;20638;-66
2023/10/08 06:32:45;;;;;;;2.10;1.77;;;15.10;99.90;;;15.37;nan;101434.69;4914174;29;20629;-66
2023/10/08 06:35:17;;;;;;;1.27;1.20;;;15.10;99.90;;;15.37;nan;101432.06;4914958;29;20641;-67
2023/10/08 06:37:45;;;;;;;1.70;1.40;;;15.10;99.90;;;15.40;nan;101435.28;4911823;29;20674;-67
2023/10/08 06:40:40;;;;;;;1.50;1.40;;;15.10;99.90;;;15.44;nan;101439.38;4907849;29;20638;-67
2023/10/08 06:43:03;;;;;;;1.60;1.37;;;15.10;99.90;;;15.44;nan;101430.63;4907112;29;20676;-67
2023/10/08 06:45:32;;;;;;;2.23;1.87;;;15.10;99.90;;;15.46;nan;101434.00;4918861;29;20650;-67
2023/10/08 06:48:01;;;;;;;1.67;1.57;;;15.10;99.90;;;15.48;nan;101440.78;4909090;29;21055;-67
2023/10/08 06:50:29;;;;;;;1.20;1.10;;;15.10;99.90;;;15.51;nan;101434.47;4906700;29;20653;-66
2023/10/08 06:52:56;;;;;;;1.93;1.83;;;15.20;99.90;;;15.51;nan;101432.66;4913780;29;21013;-66
2023/10/08 06:55:26;;;;;;;1.73;1.63;;;15.20;99.90;;;15.58;nan;101454.06;4906627;29;20656;-65
2023/10/08 06:57:54;;;;;;;2.13;1.67;;;15.20;99.90;;;15.68;nan;101456.78;4915158;29;20715;-67
2023/10/08 07:00:37;;;;;;;2.20;1.90;;;15.30;99.90;;;15.80;nan;101466.34;4912002;29;20648;-66
2023/10/08 07:03:10;;;;;;;1.47;1.37;;;15.40;99.90;;;16.00;nan;101468.19;4904568;29;20633;-66
2023/10/08 07:05:40;;;;;;;2.40;1.83;;;15.60;99.90;;;16.12;nan;101478.53;4912151;29;20629;-66
2023/10/08 07:08:08;;;;;;;4.87;2.00;;;15.70;99.90;;;16.27;nan;101476.44;4908131;29;20661;-67
2023/10/08 07:10:35;;;;;;;1.80;1.67;;;15.80;99.90;;;16.41;nan;101486.69;4911824;29;20636;-67
2023/10/08 07:13:02;;;;;;;1.93;1.67;;;16.00;99.90;;;16.58;nan;101501.97;4925804;29;20630;-67
2023/10/08 07:15:33;;;;;;;3.57;1.90;;;16.20;99.90;;;16.79;nan;101517.78;4926727;29;20638;-67
2023/10/08 07:18:09;;;;;;;2.20;1.97;;;16.40;99.90;;;17.28;nan;101525.00;4907819;29;21408;-67
2023/10/08 07:20:38;;;;;;;3.30;2.27;;;16.80;99.90;;;17.92;nan;101517.59;4913873;29;20638;-67
2023/10/08 07:23:18;;;;;;;1.73;1.63;;;17.50;99.90;;;18.53;nan;101530.50;4911457;29;20645;-68
2023/10/08 07:26:00;;;;;;;2.60;2.40;;;18.10;99.90;;;19.49;nan;101532.94;4911729;29;21027;-67
2023/10/08 07:28:29;;;;;;;2.00;1.90;;;18.90;99.90;;;20.93;nan;101521.31;4908927;29;20787;-68
2023/10/08 07:30:57;;;;;;;4.70;2.73;;;20.30;99.90;;;22.19;nan;101531.88;4912099;29;20652;-67
2023/10/08 07:33:25;;;;;;;3.57;2.53;;;21.60;99.90;;;23.21;nan;101528.72;4911977;29;21369;-65
2023/10/08 07:35:57;;;;;;;2.60;2.40;;;22.80;99.90;;;23.46;nan;101522.34;4911817;29;20646;-65
2023/10/08 07:38:28;;;;;;;2.80;2.60;;;23.20;99.90;;;23.25;nan;101528.19;4910089;29;20684;-66
2023/10/08 07:40:56;;;;;;;3.73;1.90;;;23.10;99.90;;;22.87;nan;101524.44;4911888;29;20676;-65
2023/10/08 07:43:23;;;;;;;3.20;2.50;;;22.70;99.90;;;22.42;nan;101529.41;4926741;29;20641;-66
2023/10/08 07:45:53;;;;;;;2.90;2.30;;;22.30;99.90;;;22.07;nan;101529.69;4909437;29;21032;-66
2023/10/08 07:48:24;;;;;;;2.43;2.23;;;21.90;99.90;;;21.74;nan;101526.09;4913387;29;20658;-66
2023/10/08 07:50:51;;;;;;;4.60;2.30;;;21.50;99.90;;;21.48;nan;101520.84;4917375;29;20650;-66
2023/10/08 07:53:18;;;;;;;2.60;2.20;;;21.20;99.90;;;21.42;nan;101528.63;4904778;29;20646;-65
2023/10/08 07:55:47;;;;;;;3.80;2.07;;;21.10;99.90;;;21.47;nan;101524.47;4905454;29;20649;-67
2023/10/08 07:58:15;;;;;;;3.00;2.10;;;21.20;99.90;;;21.63;nan;101527.22;4914209;29;20661;-65
2023/10/08 08:00:51;;;;;;;2.07;1.87;;;21.30;99.90;;;21.86;nan;101535.44;4908781;29;20634;-67
2023/10/08 08:03:21;;;;;;;2.77;2.20;;;21.50;99.90;;;21.84;nan;101539.25;4912184;29;20630;-66
2023/10/08 08:05:52;;;;;;;2.90;2.23;;;21.50;99.90;;;21.73;nan;101548.31;4903964;29;20654;-67
2023/10/08 08:08:21;;;;;;;2.80;2.50;;;21.40;99.90;;;21.62;nan;101541.47;4912675;29;20668;-67
2023/10/08 08:10:49;;;;;;;7.57;2.80;;;21.30;99.90;;;21.54;nan;101549.41;4911532;29;21034;-67
2023/10/08 08:13:20;;;;;;;2.23;1.63;;;21.20;99.90;;;21.43;nan;101560.31;4913839;29;20638;-67
2023/10/08 08:15:50;;;;;;;1.33;1.23;;;21.10;99.90;;;21.33;nan;101548.97;4911656;29;20663;-66
2023/10/08 08:18:22;;;;;;;3.00;1.77;;;21.00;99.90;;;21.24;nan;101557.03;4927099;29;21244;-67
2023/10/08 08:20:49;;;;;;;1.40;1.30;;;20.90;99.90;;;21.13;nan;101551.97;4913399;29;20653;-67
2023/10/08 08:23:16;;;;;;;1.30;1.27;;;20.80;99.90;;;21.03;nan;101551.25;4910218;29;21235;-67
2023/10/08 08:26:05;;;;;;;0.83;0.83;;;20.70;99.90;;;20.91;nan;101548.00;4915162;29;21259;-66
2023/10/08 08:28:33;;;;;;;0.80;0.80;;;20.50;99.90;;;20.72;nan;101554.31;4913237;29;20665;-67
2023/10/08 08:31:04;;;;;;;1.70;1.60;;;20.40;99.90;;;20.60;nan;101549.41;4901212;29;20638;-66
2023/10/08 08:33:52;;;;;;;1.93;1.83;;;20.20;99.90;;;20.45;nan;101548.28;4909246;29;21557;-66
2023/10/08 08:36:23;;;;;;;1.30;1.20;;;20.10;99.90;;;20.37;nan;101556.16;4912694;29;20641;-67
2023/10/08 08:38:51;;;;;;;2.33;1.17;;;20.00;99.90;;;20.31;nan;101559.41;4909190;29;20680;-66
2023/10/08 08:41:20;;;;;;;1.50;1.40;;;19.90;99.90;;;20.24;nan;101550.38;4912762;29;20673;-65
2023/10/08 08:43:58;;;;;;;1.53;1.30;;;19.90;99.90;;;20.18;nan;101561.56;4905326;29;21029;-67
2023/10/08 08:46:32;;;;;;;2.60;1.60;;;19.80;99.90;;;20.12;nan;101563.00;4918786;29;20693;-65
2023/10/08 08:49:07;;;;;;;1.67;1.57;;;19.70;99.90;;;20.10;nan;101568.44;4912016;29;21470;-65
2023/10/08 08:51:36;;;;;;;2.03;1.83;;;19.70;99.90;;;20.07;nan;101574.03;4909499;29;20665;-66
2023/10/08 08:54:07;;;;;;;3.83;2.40;;;19.70;99.90;;;20.04;nan;101568.19;4908511;29;20642;-65
2023/10/08 08:56:38;;;;;;;2.13;2.03;;;19.60;99.90;;;20.03;nan;101571.84;4911055;29;20642;-66
2023/10/08 08:59:05;;;;;;;2.13;1.93;;;19.60;99.90;;;20.00;nan;101570.31;4905859;29;20654;-65
2023/10/08 09:01:33;;;;;;;3.53;2.50;;;19.60;99.90;;;19.96;nan;101568.94;4903545;29;20670;-66
2023/10/08 09:04:05;;;;;;;2.40;2.13;;;19.60;99.90;;;19.93;nan;101569.22;4910494;29;20638;-66
2023/10/08 09:06:40;;;;;;;2.57;2.23;;;19.50;99.90;;;19.88;nan;101566.22;4908434;29;21026;-65
2023/10/08 09:09:23;;;;;;;2.37;1.93;;;19.50;99.90;;;19.83;nan;101571.09;4903668;29;21019;-66
2023/10/08 09:11:56;;;;;;;1.87;1.70;;;19.50;99.90;;;19.80;nan;101568.75;4903506;29;20644;-65
2023/10/08 09:14:34;;;;;;;2.60;1.70;;;19.40;99.90;;;19.75;nan;101563.06;4909348;29;20661;-64
2023/10/08 09:17:04;;;;;;;3.97;2.57;;;19.40;99.90;;;19.71;nan;101556.41;4904443;29;20665;-66
2023/10/08 09:19:37;;;;;;;4.13;1.60;;;19.30;99.90;;;19.71;nan;101564.34;4908950;29;20997;-64
2023/10/08 09:22:11;;;;;;;1.80;1.70;;;19.30;99.90;;;19.78;nan;101552.16;4903755;29;21060;-65
2023/10/08 09:24:42;;;;;;;4.83;2.30;;;19.30;99.90;;;19.78;nan;101540.75;4903132;29;21170;-65
2023/10/08 09:27:14;;;;;;;8.23;2.80;;;19.40;99.90;;;19.83;nan;101535.81;4907407;29;20667;-65
2023/10/08 09:29:42;;;;;;;6.80;4.90;;;19.40;99.90;;;19.90;nan;101542.22;4906859;29;20646;-65
2023/10/08 09:32:13;;;;;;;15.17;8.80;;;19.50;99.90;;;19.95;nan;101548.72;4907196;29;21400;-66
2023/10/08 09:34:40;;;;;;;3.83;2.67;;;19.50;99.90;;;20.06;nan;101575.00;4908212;29;21105;-66
2023/10/08 09:37:07;;;;;;;4.03;2.60;;;19.60;99.90;;;20.17;nan;101578.47;4908408;29;20681;-68
2023/10/08 09:39:35;;;;;;;2.33;2.13;;;19.70;99.90;;;20.26;nan;101588.16;4908466;29;21021;-69
2023/10/08 09:42:06;;;;;;;1.67;1.57;;;19.80;99.90;;;20.29;nan;101582.59;4910745;29;20673;-66
2023/10/08 09:44:34;;;;;;;2.23;1.73;;;19.80;99.90;;;20.24;nan;101576.88;4908398;29;21267;-66
2023/10/08 09:47:06;;;;;;;3.87;2.10;;;19.80;99.90;;;20.20;nan;101572.84;4909551;29;20661;-66
2023/10/08 09:49:43;;;;;;;1.70;1.43;;;19.80;99.90;;;20.14;nan;101569.78;4909218;29;20642;-65
2023/10/08 09:52:12;;;;;;;4.30;1.60;;;19.70;99.90;;;20.10;nan;101557.81;4910014;29;20649;-66
2023/10/08 09:55:15;;;;;;;3.33;2.13;;;19.70;99.90;;;20.09;nan;101553.53;4924858;29;20637;-66
2023/10/08 09:57:42;;;;;;;1.17;1.13;;;19.70;99.90;;;20.16;nan;101551.13;4905888;29;20696;-66
2023/10/08 10:00:14;;;;;;;1.60;1.53;;;19.70;99.90;;;20.25;nan;101560.84;4897377;29;20661;-66
2023/10/08 10:02:43;;;;;;;1.80;1.63;;;19.80;99.90;;;20.41;nan;101560.16;4894586;29;20674;-65
2023/10/08 10:05:21;;;;;;;1.90;1.80;;;19.90;99.90;;;20.56;nan;101569.25;4918864;29;20696;-66
2023/10/08 10:07:48;;;;;;;4.27;2.47;;;20.10;99.90;;;20.73;nan;101568.41;4903638;29;20692;-66
2023/10/08 10:10:38;;;;;;;6.07;2.63;;;20.20;99.90;;;20.83;nan;101570.00;4910273;29;20637;-66
2023/10/08 10:13:07;;;;;;;3.27;2.20;;;20.30;99.90;;;20.98;nan;101570.25;4894054;29;20769;-66
2023/10/08 10:15:37;;;;;;;5.37;2.10;;;20.40;99.90;;;21.09;nan;101569.22;4901253;29;20642;-65
2023/10/08 10:18:26;;;;;;;2.37;2.17;;;20.50;99.90;;;21.15;nan;101565.94;4911849;29;20668;-67
2023/10/08 10:21:27;;;;;;;2.03;1.80;;;20.60;99.90;;;21.31;nan;101561.56;4913548;29;20649;-67
2023/10/08 10:23:56;;;;;;;3.83;2.07;;;20.80;99.90;;;21.44;nan;101561.97;4911562;29;20641;-65
2023/10/08 10:26:33;;;;;;;2.27;1.90;;;21.00;99.90;;;21.62;nan;101564.53;4908576;29;21431;-65
2023/10/08 10:29:15;;;;;;;2.33;2.10;;;21.10;99.90;;;21.75;nan;101551.66;4909319;29;20697;-66
2023/10/08 10:31:47;;;;;;;2.90;2.27;;;21.20;99.90;;;21.85;nan;101549.72;4906261;29;20874;-66
2023/10/08 10:34:20;;;;;;;2.07;1.87;;;21.30;99.90;;;21.94;nan;101555.88;4924463;29;20622;-66
2023/10/08 10:36:55;;;;;;;3.83;2.23;;;21.40;99.90;;;22.00;nan;101553.41;4910694;29;21080;-66
2023/10/08 10:39:27;;;;;;;3.67;2.57;;;21.50;99.90;;;22.03;nan;101553.13;4909589;29;20695;-66
2023/10/08 10:42:20;;;;;;;2.10;1.90;;;21.50;99.90;;;22.04;nan;101541.47;4904756;29;21102;-66
2023/10/08 10:44:53;;;;;;;2.47;2.07;;;21.60;99.90;;;22.11;nan;101546.97;4913963;29;20634;-66
2023/10/08 10:49:53;;;;;;;9.93;2.27;;;21.70;99.90;;;22.27;nan;101550.50;4914617;29;21222;-66
2023/10/08 10:52:44;;;;;;;3.87;2.70;;;21.70;99.90;;;22.42;nan;101541.88;4903770;29;20622;-66
2023/10/08 10:58:14;;;;;;;4.17;3.47;;;22.00;99.90;;;22.67;nan;101540.91;4910516;29;20720;-66
2023/10/08 11:03:17;;;;;;;2.17;1.97;;;22.10;99.90;;;22.76;nan;101537.25;4914002;29;20678;-66
2023/10/08 11:05:51;;;;;;;4.67;2.17;;;22.20;99.90;;;22.85;nan;101534.41;4913272;29;20637;-66
2023/10/08 11:08:19;;;;;;;2.77;1.70;;;22.40;99.90;;;22.89;nan;101530.41;4925594;29;21257;-67
2023/10/08 11:10:51;;;;;;;2.53;1.87;;;22.40;99.90;;;22.95;nan;101532.44;4922728;29;20645;-65
2023/10/08 11:13:20;;;;;;;2.20;2.00;;;22.50;99.90;;;23.03;nan;101537.72;4914051;29;20642;-66
2023/10/08 11:15:54;;;;;;;3.60;2.80;;;22.50;99.90;;;23.11;nan;101540.38;4913921;29;20648;-67
2023/10/08 11:18:23;;;;;;;2.63;2.43;;;22.60;99.90;;;23.15;nan;101541.69;4917899;29;20658;-66
2023/10/08 11:21:00;;;;;;;3.57;2.00;;;22.70;99.90;;;23.16;nan;101542.53;4911304;29;20641;-67
2023/10/08 11:23:37;;;;;;;2.23;2.13;;;22.70;99.90;;;23.05;nan;101534.91;4923284;29;20678;-66
2023/10/08 11:26:05;;;;;;;2.87;2.40;;;22.60;99.90;;;22.92;nan;101538.06;4912354;29;21199;-66
2023/10/08 11:28:43;;;;;;;4.07;2.73;;;22.50;99.90;;;22.78;nan;101540.59;4913092;29;21044;-66
2023/10/08 11:31:17;;;;;;;4.37;2.80;;;22.40;99.90;;;22.73;nan;101543.75;4904296;29;20650;-66
2023/10/08 11:33:54;;;;;;;5.73;2.80;;;22.20;99.90;;;22.71;nan;101540.44;4903550;29;20642;-66
2023/10/08 11:36:28;;;;;;;4.40;3.30;;;22.20;99.90;;;22.65;nan;101549.06;4923415;29;20692;-66
2023/10/08 11:39:07;;;;;;;3.50;2.80;;;22.10;99.90;;;22.63;nan;101551.06;4924846;29;20693;-66